PILOTS ONLINE: 576    ATC ONLINE: 91

Location

IATA WIC
City Wick
Country  United Kingdom
Latitude 58° 27' 32" N
Longitude 3° 5' 35" W
Elevation 126 ft
Type Medium Airport

Weather

METAR
2014/07/12 14:50
EGPC 121450Z AUTO 14010KT 9999 -RA NCD 14/13 Q1009
TAF
No TAF available

Runways

08/26 3399 ft / 148 ft
13/31 5988 ft / 148 ft

Outbound flights

Inbound flights


Spotted incorrect airport information? Please login with your VATSIM ID.